createdAt,value
2023-03-27T00:01:16.221Z,93595.88
2023-03-27T00:03:43.221Z,93594.38
2023-03-27T00:06:11.936Z,93589.41
2023-03-27T00:08:38.794Z,93589.31
2023-03-27T00:11:07.903Z,93591.50
2023-03-27T00:13:36.740Z,93592.56
2023-03-27T00:16:16.169Z,93589.53
2023-03-27T00:18:42.808Z,93581.78
2023-03-27T00:21:09.446Z,93582.00
2023-03-27T00:23:36.385Z,93592.25
2023-03-27T00:26:02.944Z,93589.84
2023-03-27T00:28:30.214Z,93581.94
2023-03-27T00:30:59.009Z,93586.56
2023-03-27T00:33:26.388Z,93593.50
2023-03-27T00:35:53.167Z,93583.09
2023-03-27T00:38:20.869Z,93579.97
2023-03-27T00:40:49.211Z,93585.22
2023-03-27T00:43:20.981Z,93580.84
2023-03-27T00:45:49.090Z,93586.06
2023-03-27T00:48:20.276Z,93581.66
2023-03-27T00:50:48.135Z,93592.22
2023-03-27T00:53:17.052Z,93585.22
2023-03-27T00:55:47.061Z,93582.69
2023-03-27T00:58:17.398Z,93575.63
2023-03-27T01:00:44.037Z,93569.75
2023-03-27T01:03:11.652Z,93582.59
2023-03-27T01:05:40.372Z,93577.63
2023-03-27T01:08:07.504Z,93576.75
2023-03-27T01:10:45.289Z,93580.97
2023-03-27T01:13:30.847Z,93582.59
2023-03-27T01:16:04.341Z,93589.03
2023-03-27T01:18:40.420Z,93595.75
2023-03-27T01:21:48.260Z,93589.84
2023-03-27T01:25:00.261Z,93595.41
2023-03-27T01:27:51.479Z,93594.56
2023-03-27T01:30:26.395Z,93602.28
2023-03-27T01:33:09.584Z,93605.38
2023-03-27T01:36:13.498Z,93612.75
2023-03-27T01:39:02.732Z,93600.84
2023-03-27T01:41:35.222Z,93601.72
2023-03-27T01:44:09.125Z,93598.06
2023-03-27T01:46:42.937Z,93599.72
2023-03-27T01:49:15.594Z,93597.97
2023-03-27T01:51:46.873Z,93599.31
2023-03-27T01:54:19.428Z,93610.16
2023-03-27T01:56:51.636Z,93601.16
2023-03-27T01:59:21.573Z,93605.00
2023-03-27T02:01:54.222Z,93607.75
2023-03-27T02:04:27.294Z,93595.28
2023-03-27T02:06:59.043Z,93603.44
2023-03-27T02:09:33.650Z,93612.88
2023-03-27T02:12:07.299Z,93599.41
2023-03-27T02:14:39.066Z,93618.97
2023-03-27T02:17:10.220Z,93617.38
2023-03-27T02:19:41.136Z,93622.41
2023-03-27T02:22:07.991Z,93620.22
2023-03-27T02:24:35.953Z,93606.88
2023-03-27T02:27:12.840Z,93618.63
2023-03-27T02:29:51.608Z,93623.72
2023-03-27T02:32:32.417Z,93616.63
2023-03-27T02:35:08.222Z,93616.63
2023-03-27T02:37:45.586Z,93630.13
2023-03-27T02:40:21.527Z,93626.38
2023-03-27T02:43:01.105Z,93638.06
2023-03-27T02:45:36.464Z,93639.28
2023-03-27T02:48:09.566Z,93639.63
2023-03-27T02:50:40.990Z,93633.00
2023-03-27T02:53:10.188Z,93634.25
2023-03-27T02:55:42.713Z,93644.75
2023-03-27T02:58:14.742Z,93640.41
2023-03-27T03:00:48.919Z,93648.25
2023-03-27T03:03:21.089Z,93641.16
2023-03-27T03:05:48.105Z,93660.88
2023-03-27T03:08:14.721Z,93647.63
2023-03-27T03:10:45.914Z,93670.19
2023-03-27T03:13:12.682Z,93658.91
2023-03-27T03:15:39.365Z,93675.75
2023-03-27T03:18:07.304Z,93669.84
2023-03-27T03:20:36.766Z,93665.84
2023-03-27T03:23:03.530Z,93672.50
2023-03-27T03:25:31.370Z,93686.19
2023-03-27T03:28:01.518Z,93684.22
2023-03-27T03:30:30.131Z,93685.06
2023-03-27T03:32:57.447Z,93680.66
2023-03-27T03:35:25.124Z,93688.75
2023-03-27T03:37:52.808Z,93699.97
2023-03-27T03:40:20.371Z,93682.78
2023-03-27T03:42:47.918Z,93708.75
2023-03-27T03:45:16.612Z,93701.78
2023-03-27T03:47:43.789Z,93702.03
2023-03-27T03:50:11.737Z,93708.75
2023-03-27T03:52:38.660Z,93705.16
2023-03-27T03:55:06.468Z,93724.69
2023-03-27T03:57:33.161Z,93726.84
2023-03-27T03:59:59.760Z,93732.88
2023-03-27T04:02:31.202Z,93722.94
2023-03-27T04:04:59.116Z,93754.63
2023-03-27T04:07:31.430Z,93752.66
2023-03-27T04:09:59.399Z,93769.19
2023-03-27T04:12:27.152Z,93766.63
2023-03-27T04:14:54.271Z,93765.78
2023-03-27T04:17:23.410Z,93763.97
2023-03-27T04:19:54.136Z,93761.59
2023-03-27T04:22:22.889Z,93773.88
2023-03-27T04:24:50.520Z,93782.44
2023-03-27T04:27:18.755Z,93781.00
2023-03-27T04:29:47.287Z,93786.25
2023-03-27T04:32:19.257Z,93788.00
2023-03-27T04:34:47.074Z,93786.19
2023-03-27T04:37:15.827Z,93791.53
2023-03-27T04:39:46.285Z,93795.22
2023-03-27T04:42:14.476Z,93813.78
2023-03-27T04:44:41.516Z,93814.97
2023-03-27T04:47:09.030Z,93829.81
2023-03-27T04:49:40.436Z,93823.28
2023-03-27T04:52:07.300Z,93858.09
2023-03-27T04:54:35.698Z,93857.31
2023-03-27T04:57:03.642Z,93869.78
2023-03-27T04:59:31.842Z,93878.06
2023-03-27T05:01:59.072Z,93878.22
2023-03-27T05:04:26.707Z,93891.53
2023-03-27T05:06:53.483Z,93887.72
2023-03-27T05:09:20.454Z,93906.34
2023-03-27T05:11:50.076Z,93905.72
2023-03-27T05:14:16.795Z,93915.06
2023-03-27T05:16:43.470Z,93931.00
2023-03-27T05:19:11.272Z,93924.63
2023-03-27T05:21:38.113Z,93938.00
2023-03-27T05:24:05.470Z,93941.41
2023-03-27T05:26:32.794Z,93956.63
2023-03-27T05:29:00.760Z,93951.03
2023-03-27T05:31:28.317Z,93969.97
2023-03-27T05:33:55.053Z,93981.66
2023-03-27T05:36:24.377Z,93982.59
2023-03-27T05:38:53.091Z,93992.25
2023-03-27T05:41:20.063Z,94003.56
2023-03-27T05:43:47.098Z,94010.59
2023-03-27T05:46:20.798Z,94020.66
2023-03-27T05:48:48.215Z,94024.00
2023-03-27T05:51:14.984Z,94026.13
2023-03-27T05:53:41.611Z,94041.81
2023-03-27T05:56:09.602Z,94048.78
2023-03-27T05:58:36.465Z,94064.91
2023-03-27T06:01:03.468Z,94078.19
2023-03-27T06:03:34.867Z,94076.56
2023-03-27T06:06:07.031Z,94097.47
2023-03-27T06:08:34.033Z,94104.94
2023-03-27T06:11:00.634Z,94112.50
2023-03-27T06:13:27.408Z,94128.13
2023-03-27T06:15:54.587Z,94134.03
2023-03-27T06:18:21.478Z,94144.63
2023-03-27T06:20:50.026Z,94153.03
2023-03-27T06:23:16.854Z,94153.16
2023-03-27T06:25:44.122Z,94168.53
2023-03-27T06:28:11.196Z,94175.25
2023-03-27T06:30:38.816Z,94182.00
2023-03-27T06:33:07.598Z,94197.91
2023-03-27T06:35:35.093Z,94185.56
2023-03-27T06:38:03.256Z,94204.78
2023-03-27T06:40:32.534Z,94219.06
2023-03-27T06:43:00.876Z,94219.06
2023-03-27T06:45:29.802Z,94229.66
2023-03-27T06:48:15.471Z,94234.78
2023-03-27T06:50:44.776Z,94250.94
2023-03-27T06:53:26.377Z,94246.00
2023-03-27T06:55:53.617Z,94263.41
2023-03-27T06:58:20.713Z,94282.19
2023-03-27T07:00:48.810Z,94280.50
2023-03-27T07:03:16.093Z,94283.31
2023-03-27T07:05:42.799Z,94286.53
2023-03-27T07:08:22.534Z,94300.16
2023-03-27T07:11:07.496Z,94297.47
2023-03-27T07:13:37.877Z,94302.13
2023-03-27T07:16:05.389Z,94311.75
2023-03-27T07:18:32.217Z,94315.72
2023-03-27T07:20:59.087Z,94318.25
2023-03-27T07:23:28.684Z,94329.22
2023-03-27T07:25:57.669Z,94339.31
2023-03-27T07:28:24.386Z,94350.97
2023-03-27T07:30:50.967Z,94357.88
2023-03-27T07:33:18.806Z,94368.53
2023-03-27T07:35:46.710Z,94384.56
2023-03-27T07:38:14.733Z,94390.91
2023-03-27T07:40:45.925Z,94401.22
2023-03-27T07:43:13.270Z,94393.41
2023-03-27T07:45:40.234Z,94402.53
2023-03-27T07:48:08.522Z,94408.31
2023-03-27T07:50:35.825Z,94415.34
2023-03-27T07:53:02.729Z,94420.81
2023-03-27T07:55:32.367Z,94422.03
2023-03-27T07:58:02.775Z,94430.72
2023-03-27T08:00:35.389Z,94432.88
2023-03-27T08:03:07.396Z,94438.13
2023-03-27T08:05:34.389Z,94445.69
2023-03-27T08:08:01.322Z,94455.66
2023-03-27T08:10:28.056Z,94465.25
2023-03-27T08:12:54.601Z,94476.66
2023-03-27T08:15:22.598Z,94477.66
2023-03-27T08:17:53.729Z,94484.91
2023-03-27T08:20:20.396Z,94492.63
2023-03-27T08:22:47.042Z,94498.44
2023-03-27T08:25:13.735Z,94507.03
2023-03-27T08:27:40.332Z,94512.81
2023-03-27T08:30:09.260Z,94510.28
2023-03-27T08:32:38.986Z,94510.09
2023-03-27T08:35:07.306Z,94519.00
2023-03-27T08:37:33.872Z,94524.56
2023-03-27T08:40:01.775Z,94529.78
2023-03-27T08:42:36.996Z,94538.50
2023-03-27T08:45:12.934Z,94545.03
2023-03-27T08:47:47.259Z,94551.06
2023-03-27T08:50:22.497Z,94552.06
2023-03-27T08:52:50.563Z,94562.56
2023-03-27T08:55:20.635Z,94568.09
2023-03-27T08:57:50.238Z,94575.44
2023-03-27T09:00:22.592Z,94575.69
2023-03-27T09:02:56.256Z,94580.22
2023-03-27T09:05:30.329Z,94570.72
2023-03-27T09:08:06.177Z,94583.69
2023-03-27T09:10:37.965Z,94581.38
2023-03-27T09:13:11.133Z,94589.28
2023-03-27T09:15:42.457Z,94590.56
2023-03-27T09:18:17.353Z,94591.31
2023-03-27T09:20:47.724Z,94601.81
2023-03-27T09:23:21.020Z,94602.50
2023-03-27T09:25:52.079Z,94609.47
2023-03-27T09:28:22.540Z,94611.78
2023-03-27T09:30:49.542Z,94624.19
2023-03-27T09:33:18.117Z,94625.69
2023-03-27T09:35:44.960Z,94625.56
2023-03-27T09:38:24.759Z,94626.94
2023-03-27T09:40:57.248Z,94639.84
2023-03-27T09:43:28.762Z,94647.78
2023-03-27T09:45:57.327Z,94648.00
2023-03-27T09:48:34.716Z,94646.56
2023-03-27T09:51:02.406Z,94652.00
2023-03-27T09:53:29.105Z,94647.63
2023-03-27T09:56:03.281Z,94657.25
2023-03-27T09:58:35.707Z,94661.44
2023-03-27T10:01:13.747Z,94666.34
2023-03-27T10:03:48.617Z,94670.34
2023-03-27T10:06:25.181Z,94674.41
2023-03-27T10:08:52.988Z,94686.34
2023-03-27T10:11:22.078Z,94671.69
2023-03-27T10:13:50.931Z,94685.94
2023-03-27T10:16:19.822Z,94688.56
2023-03-27T10:18:50.040Z,94693.28
2023-03-27T10:21:23.529Z,94688.09
2023-03-27T10:23:51.392Z,94694.22
2023-03-27T10:26:21.147Z,94704.03
2023-03-27T10:28:49.053Z,94696.16
2023-03-27T10:31:29.684Z,94704.66
2023-03-27T10:34:00.322Z,94714.91
2023-03-27T10:36:27.864Z,94718.13
2023-03-27T10:38:58.368Z,94718.63
2023-03-27T10:41:28.825Z,94717.59
2023-03-27T10:43:57.536Z,94727.56
2023-03-27T10:46:26.561Z,94734.56
2023-03-27T10:49:04.064Z,94732.41
2023-03-27T10:51:46.860Z,94746.66
2023-03-27T10:54:24.002Z,94741.66
2023-03-27T10:56:57.393Z,94744.06
2023-03-27T10:59:41.038Z,94757.50
2023-03-27T11:02:15.336Z,94759.59
2023-03-27T11:04:48.931Z,94766.78
2023-03-27T11:07:22.205Z,94765.94
2023-03-27T11:09:57.927Z,94780.53
2023-03-27T11:12:27.714Z,94779.88
2023-03-27T11:14:56.817Z,94788.22
2023-03-27T11:17:29.965Z,94790.03
2023-03-27T11:20:07.111Z,94796.84
2023-03-27T11:22:37.367Z,94794.72
2023-03-27T11:25:07.810Z,94792.91
2023-03-27T11:27:41.134Z,94795.94
2023-03-27T11:30:33.466Z,94805.94
2023-03-27T11:33:11.783Z,94811.72
2023-03-27T11:35:48.543Z,94814.44
2023-03-27T11:38:19.519Z,94817.59
2023-03-27T11:40:48.384Z,94817.28
2023-03-27T11:43:16.601Z,94820.47
2023-03-27T11:45:53.099Z,94828.09
2023-03-27T11:48:40.072Z,94821.00
2023-03-27T11:51:17.434Z,94819.69
2023-03-27T11:53:56.481Z,94834.91
2023-03-27T11:56:35.200Z,94826.25
2023-03-27T11:59:20.534Z,94828.97
2023-03-27T12:01:52.534Z,94833.91
2023-03-27T12:04:40.548Z,94829.81
2023-03-27T12:07:33.859Z,94833.78
2023-03-27T12:10:18.478Z,94833.88
2023-03-27T12:12:57.470Z,94828.31
2023-03-27T12:15:51.865Z,94833.25
2023-03-27T12:18:36.209Z,94831.16
2023-03-27T12:21:17.560Z,94838.59
2023-03-27T12:23:56.078Z,94836.47
2023-03-27T12:26:49.130Z,94842.03
2023-03-27T12:29:31.580Z,94835.50
2023-03-27T12:32:20.348Z,94840.56
2023-03-27T12:34:53.051Z,94847.78
2023-03-27T12:37:25.189Z,94854.09
2023-03-27T12:39:56.746Z,94853.31
2023-03-27T12:42:43.866Z,94849.44
2023-03-27T12:45:18.156Z,94845.91
2023-03-27T12:47:46.099Z,94860.56
2023-03-27T12:50:20.165Z,94855.06
2023-03-27T12:52:46.810Z,94870.97
2023-03-27T12:55:32.632Z,94867.63
2023-03-27T12:58:01.899Z,94874.44
2023-03-27T13:00:29.064Z,94879.94
2023-03-27T13:03:17.645Z,94874.47
2023-03-27T13:05:57.044Z,94874.47
2023-03-27T13:08:41.765Z,94878.34
2023-03-27T13:11:19.161Z,94878.47
2023-03-27T13:14:16.261Z,94880.94
2023-03-27T13:16:57.857Z,94883.66
2023-03-27T13:19:38.663Z,94889.22
2023-03-27T13:22:37.268Z,94891.03
2023-03-27T13:25:17.841Z,94897.72
2023-03-27T13:28:18.030Z,94893.28
2023-03-27T13:30:47.614Z,94902.38
2023-03-27T13:33:17.320Z,94886.63
2023-03-27T13:35:53.271Z,94900.97
2023-03-27T13:38:49.117Z,94899.13
2023-03-27T13:41:53.636Z,94900.53
2023-03-27T13:44:28.193Z,94896.63
2023-03-27T13:47:02.073Z,94905.38
2023-03-27T13:49:42.395Z,94921.84
2023-03-27T13:52:35.675Z,94927.41
2023-03-27T13:55:19.931Z,94921.97
2023-03-27T13:57:58.944Z,94937.50
2023-03-27T14:00:42.690Z,94937.47
2023-03-27T14:03:48.433Z,94937.63
2023-03-27T14:06:42.924Z,94935.22
2023-03-27T14:09:18.075Z,94934.97
2023-03-27T14:12:00.009Z,94937.28
2023-03-27T14:14:41.303Z,94947.22
2023-03-27T14:17:40.194Z,94942.16
2023-03-27T14:20:24.048Z,94943.38
2023-03-27T14:22:56.804Z,94943.38
2023-03-27T14:25:30.273Z,94952.88
2023-03-27T14:27:58.105Z,94953.81
2023-03-27T14:30:26.917Z,94951.66
2023-03-27T14:32:58.513Z,94964.16
2023-03-27T14:35:32.865Z,94970.53
2023-03-27T14:38:01.203Z,94968.38
2023-03-27T14:40:30.959Z,94962.47
2023-03-27T14:42:58.598Z,94970.69
2023-03-27T14:45:27.680Z,94974.41
2023-03-27T14:47:57.714Z,94985.56
2023-03-27T14:50:25.453Z,94992.72
2023-03-27T14:52:53.865Z,94991.88
2023-03-27T14:55:24.047Z,95001.69
2023-03-27T14:57:52.332Z,95005.09
2023-03-27T15:00:23.529Z,95001.25
2023-03-27T15:02:52.730Z,95003.56
2023-03-27T15:05:22.578Z,95001.34
2023-03-27T15:07:50.091Z,95001.06
2023-03-27T15:10:22.383Z,95002.69
2023-03-27T15:12:49.198Z,95001.31
2023-03-27T15:15:38.854Z,95003.66
2023-03-27T15:18:10.760Z,95012.63
2023-03-27T15:20:41.044Z,95011.59
2023-03-27T15:23:17.024Z,95006.97
2023-03-27T15:25:49.470Z,95009.28
2023-03-27T15:28:20.037Z,95005.06
2023-03-27T15:30:51.428Z,95004.63
2023-03-27T15:33:21.916Z,95009.00
2023-03-27T15:35:53.316Z,95004.88
2023-03-27T15:38:26.281Z,95007.28
2023-03-27T15:41:01.370Z,95007.66
2023-03-27T15:43:29.655Z,95020.47
2023-03-27T15:46:12.961Z,95012.59
2023-03-27T15:48:43.970Z,95018.22
2023-03-27T15:51:26.866Z,95030.72
2023-03-27T15:53:55.866Z,95021.28
2023-03-27T15:56:26.237Z,95022.06
2023-03-27T15:58:55.238Z,95024.78
2023-03-27T16:01:26.975Z,95031.69
2023-03-27T16:03:58.939Z,95027.28
2023-03-27T16:06:30.778Z,95032.16
2023-03-27T16:08:58.421Z,95026.75
2023-03-27T16:11:38.457Z,95027.97
2023-03-27T16:14:18.169Z,95030.00
2023-03-27T16:16:44.645Z,95033.59
2023-03-27T16:19:13.140Z,95033.03
2023-03-27T16:21:54.293Z,95041.84
2023-03-27T16:24:21.205Z,95031.50
2023-03-27T16:26:49.014Z,95039.78
2023-03-27T16:29:16.252Z,95044.09
2023-03-27T16:31:42.941Z,95042.91
2023-03-27T16:34:12.001Z,95046.28
2023-03-27T16:36:51.551Z,95039.78
2023-03-27T16:39:18.132Z,95053.75
2023-03-27T16:41:45.343Z,95038.91
2023-03-27T16:44:11.877Z,95043.72
2023-03-27T16:46:38.459Z,95050.16
2023-03-27T16:49:05.019Z,95051.88
2023-03-27T16:51:31.832Z,95060.44
2023-03-27T16:53:59.752Z,95057.41
2023-03-27T16:56:26.288Z,95058.81
2023-03-27T16:58:52.838Z,95066.72
2023-03-27T17:01:19.733Z,95061.66
2023-03-27T17:03:46.470Z,95065.84
2023-03-27T17:06:14.946Z,95072.13
2023-03-27T17:08:41.483Z,95081.84
2023-03-27T17:11:11.675Z,95081.56
2023-03-27T17:13:40.276Z,95079.41
2023-03-27T17:16:09.121Z,95082.63
2023-03-27T17:18:36.421Z,95088.09
2023-03-27T17:21:03.112Z,95089.94
2023-03-27T17:23:29.737Z,95085.00
2023-03-27T17:25:59.503Z,95086.81
2023-03-27T17:28:27.457Z,95094.91
2023-03-27T17:31:03.861Z,95105.34
2023-03-27T17:33:31.709Z,95111.03
2023-03-27T17:35:58.513Z,95113.06
2023-03-27T17:38:25.526Z,95106.50
2023-03-27T17:40:52.597Z,95107.28
2023-03-27T17:43:19.233Z,95107.16
2023-03-27T17:45:47.914Z,95106.88
2023-03-27T17:48:14.525Z,95126.13
2023-03-27T17:50:41.109Z,95140.50
2023-03-27T17:53:07.905Z,95141.13
2023-03-27T17:55:36.817Z,95150.19
2023-03-27T17:58:09.392Z,95155.00
2023-03-27T18:00:37.334Z,95166.75
2023-03-27T18:03:06.607Z,95163.50
2023-03-27T18:05:37.519Z,95166.78
2023-03-27T18:08:04.547Z,95176.13
2023-03-27T18:10:32.654Z,95179.31
2023-03-27T18:13:00.964Z,95185.91
2023-03-27T18:15:27.627Z,95184.81
2023-03-27T18:17:54.295Z,95179.63
2023-03-27T18:20:22.296Z,95184.75
2023-03-27T18:22:48.905Z,95187.88
2023-03-27T18:25:15.952Z,95188.25
2023-03-27T18:27:44.319Z,95190.81
2023-03-27T18:30:14.185Z,95200.59
2023-03-27T18:32:42.706Z,95203.22
2023-03-27T18:35:12.867Z,95200.53
2023-03-27T18:37:42.069Z,95220.16
2023-03-27T18:40:11.768Z,95217.41
2023-03-27T18:42:40.193Z,95228.41
2023-03-27T18:45:08.719Z,95227.47
2023-03-27T18:47:36.194Z,95227.66
2023-03-27T18:50:03.610Z,95234.25
2023-03-27T18:52:30.660Z,95225.91
2023-03-27T18:54:58.867Z,95237.00
2023-03-27T18:57:25.627Z,95237.97
2023-03-27T18:59:52.260Z,95223.53
2023-03-27T19:02:18.994Z,95230.41
2023-03-27T19:04:45.743Z,95224.44
2023-03-27T19:07:12.288Z,95226.69
2023-03-27T19:09:41.739Z,95221.72
2023-03-27T19:12:09.925Z,95233.41
2023-03-27T19:14:36.946Z,95224.44
2023-03-27T19:17:03.684Z,95220.41
2023-03-27T19:19:31.770Z,95220.47
2023-03-27T19:21:58.349Z,95216.25
2023-03-27T19:24:25.004Z,95216.06
2023-03-27T19:26:52.673Z,95218.22
2023-03-27T19:29:20.675Z,95214.78
2023-03-27T19:43:21.560Z,95229.34
2023-03-27T19:50:04.229Z,95227.53
2023-03-27T19:52:31.100Z,95236.56
2023-03-27T19:54:57.953Z,95239.84
2023-03-27T19:57:25.084Z,95241.38
2023-03-27T19:59:52.048Z,95244.22
2023-03-27T20:02:18.809Z,95240.75
2023-03-27T20:04:45.481Z,95240.81
2023-03-27T20:07:13.496Z,95230.50
2023-03-27T20:09:40.239Z,95237.38
2023-03-27T20:12:07.238Z,95238.38
2023-03-27T20:14:33.867Z,95239.38
2023-03-27T20:17:00.529Z,95236.75
2023-03-27T20:19:30.273Z,95239.56
2023-03-27T20:21:59.309Z,95253.69
2023-03-27T20:24:28.778Z,95253.50
2023-03-27T20:26:57.077Z,95247.63
2023-03-27T20:29:24.579Z,95245.94
2023-03-27T20:31:51.437Z,95249.25
2023-03-27T20:34:19.438Z,95246.56
2023-03-27T20:36:47.190Z,95251.25
2023-03-27T20:39:14.336Z,95256.69
2023-03-27T20:41:42.368Z,95245.25
2023-03-27T20:44:16.143Z,95247.00
2023-03-27T20:46:47.195Z,95254.00
2023-03-27T20:49:37.522Z,95262.13
2023-03-27T20:52:07.791Z,95251.78
2023-03-27T20:54:34.661Z,95261.41
2023-03-27T20:57:02.949Z,95267.06
2023-03-27T20:59:29.843Z,95267.28
2023-03-27T21:01:56.686Z,95266.53
2023-03-27T21:04:25.807Z,95266.72
2023-03-27T21:06:54.868Z,95265.66
2023-03-27T21:09:22.330Z,95267.38
2023-03-27T21:11:49.081Z,95269.53
2023-03-27T21:14:17.358Z,95271.66
2023-03-27T21:16:43.996Z,95269.47
2023-03-27T21:19:11.913Z,95282.03
2023-03-27T21:21:39.090Z,95270.91
2023-03-27T21:24:06.551Z,95267.47
2023-03-27T21:26:33.570Z,95270.09
2023-03-27T21:29:00.331Z,95279.97
2023-03-27T21:31:28.279Z,95278.16
2023-03-27T21:33:55.276Z,95279.72
2023-03-27T21:36:22.020Z,95276.72
2023-03-27T21:38:48.834Z,95282.59
2023-03-27T21:41:17.033Z,95280.91
2023-03-27T21:43:43.916Z,95285.59
2023-03-27T21:46:10.565Z,95286.03
2023-03-27T21:48:40.665Z,95283.16
2023-03-27T21:51:08.805Z,95289.84
2023-03-27T21:53:35.679Z,95295.88
2023-03-27T21:56:02.567Z,95299.31
2023-03-27T21:58:29.361Z,95303.56
2023-03-27T22:00:57.417Z,95308.81
2023-03-27T22:03:24.926Z,95302.94
2023-03-27T22:06:07.961Z,95310.56
2023-03-27T22:08:38.722Z,95314.81
2023-03-27T22:11:06.171Z,95313.00
2023-03-27T22:13:34.588Z,95312.25
2023-03-27T22:16:01.534Z,95312.03
2023-03-27T22:18:30.495Z,95318.16
2023-03-27T22:20:58.347Z,95321.41
2023-03-27T22:23:24.907Z,95320.41
2023-03-27T22:25:52.886Z,95321.63
2023-03-27T22:28:19.478Z,95320.97
2023-03-27T22:30:46.117Z,95321.34
2023-03-27T22:33:12.715Z,95321.59
2023-03-27T22:35:39.319Z,95330.78
2023-03-27T22:38:07.690Z,95331.47
2023-03-27T22:40:34.300Z,95325.78
2023-03-27T22:43:00.866Z,95320.34
2023-03-27T22:45:27.732Z,95326.75
2023-03-27T22:47:54.333Z,95318.34
2023-03-27T22:50:21.095Z,95323.22
2023-03-27T22:52:47.649Z,95327.69
2023-03-27T22:55:15.830Z,95328.50
2023-03-27T22:57:42.466Z,95330.22
2023-03-27T23:00:10.234Z,95328.50
2023-03-27T23:02:36.921Z,95334.06
2023-03-27T23:05:04.261Z,95330.38
2023-03-27T23:07:31.585Z,95331.56
2023-03-27T23:09:58.129Z,95332.00
2023-03-27T23:12:26.194Z,95332.19
2023-03-27T23:14:52.724Z,95331.56
2023-03-27T23:17:19.371Z,95325.44
2023-03-27T23:19:46.154Z,95328.94
2023-03-27T23:22:12.770Z,95331.84
2023-03-27T23:24:39.362Z,95329.22
2023-03-27T23:27:08.260Z,95329.50
2023-03-27T23:29:36.198Z,95334.06
2023-03-27T23:32:02.856Z,95333.81
2023-03-27T23:34:29.486Z,95340.19
2023-03-27T23:36:56.078Z,95352.78
2023-03-27T23:39:22.965Z,95334.81
2023-03-27T23:41:49.501Z,95352.28
2023-03-27T23:44:16.135Z,95359.66
2023-03-27T23:46:43.982Z,95356.78
2023-03-27T23:49:12.194Z,95375.94
2023-03-27T23:51:38.783Z,95364.97
2023-03-27T23:54:05.719Z,95373.78
2023-03-27T23:56:32.322Z,95367.00
2023-03-27T23:58:59.132Z,95366.28
